Time;durP1;ratioP1;P1;durP2;ratioP2;P2;SDS_P1;SDS_P2;PMS_P1;PMS_P2;Temp;Humidity;BMP_temperature;BMP_pressure;BME280_temperature;BME280_humidity;BME280_pressure;Samples;Min_cycle;Max_cycle;Signal;HPM_P1;HPM_P2
2023/12/17 00:03:15;;;;;;;37.80;18.55;;;;;;;;;;10502676;28;20436;-73
2023/12/17 00:08:19;;;;;;;36.88;17.00;;;;;;;;;;10486015;28;20081;-75
2023/12/17 00:13:20;;;;;;;35.50;15.88;;;;;;;;;;10486307;28;20082;-77
2023/12/17 00:18:20;;;;;;;30.20;14.20;;;;;;;;;;10497040;28;20082;-73
2023/12/17 00:23:20;;;;;;;36.42;15.80;;;;;;;;;;10498454;28;20073;-79
2023/12/17 00:28:20;;;;;;;31.42;16.17;;;;;;;;;;10487276;28;20052;-80
2023/12/17 00:33:21;;;;;;;23.35;13.02;;;;;;;;;;10490079;28;20093;-75
2023/12/17 00:38:21;;;;;;;29.88;14.63;;;;;;;;;;10498132;28;20044;-78
2023/12/17 00:43:21;;;;;;;25.27;14.50;;;;;;;;;;10483902;28;20451;-74
2023/12/17 00:48:21;;;;;;;27.60;12.93;;;;;;;;;;10469012;28;20271;-77
2023/12/17 00:53:22;;;;;;;26.17;12.45;;;;;;;;;;10482941;28;20047;-75
2023/12/17 00:58:22;;;;;;;30.77;14.50;;;;;;;;;;10506941;28;20023;-81
2023/12/17 01:03:23;;;;;;;30.90;13.32;;;;;;;;;;10489871;28;20044;-75
2023/12/17 01:08:23;;;;;;;23.50;12.68;;;;;;;;;;10494325;28;20479;-74
2023/12/17 01:13:23;;;;;;;22.70;10.82;;;;;;;;;;10485767;28;20031;-75
2023/12/17 01:18:24;;;;;;;27.10;13.43;;;;;;;;;;10506013;28;20398;-74
2023/12/17 01:23:24;;;;;;;28.38;13.48;;;;;;;;;;10492052;28;20405;-74
2023/12/17 01:28:24;;;;;;;27.15;12.88;;;;;;;;;;10491245;28;20021;-74
2023/12/17 01:33:24;;;;;;;24.27;13.48;;;;;;;;;;10503398;28;20039;-74
2023/12/17 01:38:24;;;;;;;28.70;12.65;;;;;;;;;;10492410;28;20058;-78
2023/12/17 01:43:25;;;;;;;25.52;12.57;;;;;;;;;;10485199;28;20012;-75
2023/12/17 01:48:26;;;;;;;25.20;13.98;;;;;;;;;;10489919;28;20024;-77
2023/12/17 01:53:28;;;;;;;23.95;13.32;;;;;;;;;;10514476;28;20422;-78
2023/12/17 01:58:29;;;;;;;21.77;11.90;;;;;;;;;;10483832;28;20020;-76
2023/12/17 02:03:29;;;;;;;21.42;10.60;;;;;;;;;;10437022;28;20044;-74
2023/12/17 02:08:30;;;;;;;21.77;11.85;;;;;;;;;;10412897;28;20030;-75
2023/12/17 02:13:30;;;;;;;16.15;8.93;;;;;;;;;;10413724;28;20046;-79
2023/12/17 02:18:30;;;;;;;23.80;12.10;;;;;;;;;;10411994;28;20041;-81
2023/12/17 02:23:30;;;;;;;19.50;8.93;;;;;;;;;;10403197;28;20028;-80
2023/12/17 02:28:31;;;;;;;22.23;9.13;;;;;;;;;;10399850;28;20022;-80
2023/12/17 02:33:31;;;;;;;17.58;10.25;;;;;;;;;;10377950;28;20029;-79
2023/12/17 02:38:31;;;;;;;18.65;9.02;;;;;;;;;;10393961;28;20030;-77
2023/12/17 02:43:31;;;;;;;20.23;9.70;;;;;;;;;;10392335;28;20198;-80
2023/12/17 02:48:33;;;;;;;15.27;10.00;;;;;;;;;;10391995;28;20021;-78
2023/12/17 02:53:33;;;;;;;19.65;9.57;;;;;;;;;;10403810;28;20032;-78
2023/12/17 02:58:33;;;;;;;16.58;9.98;;;;;;;;;;10398071;28;20021;-74
2023/12/17 03:03:34;;;;;;;15.27;9.23;;;;;;;;;;10403429;28;20037;-80
2023/12/17 03:08:37;;;;;;;21.48;10.80;;;;;;;;;;10407351;28;20038;-74
2023/12/17 03:13:38;;;;;;;13.70;8.88;;;;;;;;;;10398718;28;20025;-80
2023/12/17 03:18:38;;;;;;;15.10;8.52;;;;;;;;;;10365294;28;20029;-75
2023/12/17 03:23:38;;;;;;;19.88;11.05;;;;;;;;;;10401913;28;20029;-78
2023/12/17 03:28:39;;;;;;;15.98;8.32;;;;;;;;;;10402408;28;20026;-80
2023/12/17 03:33:40;;;;;;;18.52;9.02;;;;;;;;;;10401505;28;20036;-79
2023/12/17 03:38:41;;;;;;;20.52;9.00;;;;;;;;;;10401245;28;20064;-76
2023/12/17 03:43:41;;;;;;;18.02;9.30;;;;;;;;;;10395540;28;20408;-74
2023/12/17 03:48:41;;;;;;;15.98;8.35;;;;;;;;;;10388942;28;20029;-79
2023/12/17 03:53:42;;;;;;;13.10;7.80;;;;;;;;;;10402861;28;20037;-75
2023/12/17 03:58:43;;;;;;;19.42;9.85;;;;;;;;;;10401311;28;20035;-77
2023/12/17 04:03:43;;;;;;;21.60;10.35;;;;;;;;;;10401124;28;20174;-79
2023/12/17 04:08:45;;;;;;;19.30;9.48;;;;;;;;;;10400902;28;20120;-77
2023/12/17 04:13:45;;;;;;;16.52;9.18;;;;;;;;;;10400790;28;20907;-74
2023/12/17 04:18:45;;;;;;;19.43;10.40;;;;;;;;;;10401568;28;20029;-75
2023/12/17 04:23:46;;;;;;;20.25;10.68;;;;;;;;;;10387652;28;20034;-78
2023/12/17 04:28:46;;;;;;;18.45;9.23;;;;;;;;;;10394452;28;20038;-81
2023/12/17 04:33:46;;;;;;;16.67;9.88;;;;;;;;;;10396273;28;20492;-78
2023/12/17 04:38:48;;;;;;;19.95;10.82;;;;;;;;;;10382664;28;20032;-76
2023/12/17 04:43:48;;;;;;;22.15;11.68;;;;;;;;;;10400871;28;20140;-80
2023/12/17 04:48:48;;;;;;;18.83;9.82;;;;;;;;;;10365947;28;20037;-76
2023/12/17 04:53:49;;;;;;;18.65;9.73;;;;;;;;;;10380671;28;20029;-75
2023/12/17 04:58:49;;;;;;;19.35;9.20;;;;;;;;;;10394107;28;20029;-84
2023/12/17 05:03:49;;;;;;;20.58;9.95;;;;;;;;;;10398110;28;20057;-81
2023/12/17 05:08:50;;;;;;;17.60;8.73;;;;;;;;;;10358825;28;20405;-80
2023/12/17 05:13:50;;;;;;;17.67;10.07;;;;;;;;;;10406134;28;20025;-78
2023/12/17 05:18:50;;;;;;;15.13;9.55;;;;;;;;;;10412765;28;20029;-75
2023/12/17 05:23:50;;;;;;;19.50;9.15;;;;;;;;;;10398026;28;20105;-77
2023/12/17 05:28:50;;;;;;;21.00;9.75;;;;;;;;;;10394890;28;20627;-75
2023/12/17 05:33:51;;;;;;;20.70;11.05;;;;;;;;;;10374323;28;20022;-80
2023/12/17 05:38:52;;;;;;;16.25;9.15;;;;;;;;;;10407697;28;20049;-74
2023/12/17 05:43:52;;;;;;;18.50;10.43;;;;;;;;;;10406315;28;20487;-78
2023/12/17 05:48:52;;;;;;;19.73;10.70;;;;;;;;;;10381417;28;20084;-75
2023/12/17 05:53:55;;;;;;;16.85;10.63;;;;;;;;;;10389932;28;20152;-82
2023/12/17 05:58:55;;;;;;;18.35;10.05;;;;;;;;;;10405851;28;20025;-78
2023/12/17 06:03:59;;;;;;;20.00;10.50;;;;;;;;;;10463963;28;20052;-78
2023/12/17 06:08:59;;;;;;;17.73;10.82;;;;;;;;;;10471134;28;20117;-72
2023/12/17 06:13:59;;;;;;;18.73;11.25;;;;;;;;;;10469784;28;20455;-75
2023/12/17 06:18:59;;;;;;;19.47;10.53;;;;;;;;;;10470284;28;20462;-76
2023/12/17 06:24:02;;;;;;;22.02;13.23;;;;;;;;;;10470711;28;20112;-76
2023/12/17 06:29:02;;;;;;;21.77;11.77;;;;;;;;;;10459464;28;20021;-80
2023/12/17 06:34:02;;;;;;;17.05;9.45;;;;;;;;;;10464266;28;20051;-77
2023/12/17 06:39:03;;;;;;;20.75;11.98;;;;;;;;;;10465564;28;20051;-76
2023/12/17 06:44:03;;;;;;;25.05;9.95;;;;;;;;;;10446416;28;20475;-75
2023/12/17 06:49:03;;;;;;;20.25;9.80;;;;;;;;;;10450672;28;20554;-76
2023/12/17 06:54:03;;;;;;;23.20;10.65;;;;;;;;;;10453029;28;20134;-79
2023/12/17 06:59:05;;;;;;;20.83;10.70;;;;;;;;;;10479034;28;20097;-75
2023/12/17 07:04:05;;;;;;;16.65;10.65;;;;;;;;;;10463120;28;20507;-82
2023/12/17 07:09:06;;;;;;;20.63;10.75;;;;;;;;;;10460779;28;20016;-77
2023/12/17 07:14:06;;;;;;;23.95;12.15;;;;;;;;;;10463312;28;20411;-76
2023/12/17 07:19:06;;;;;;;21.40;12.02;;;;;;;;;;10454552;28;20063;-76
2023/12/17 07:24:06;;;;;;;19.23;10.23;;;;;;;;;;10462938;28;20578;-78
2023/12/17 07:29:06;;;;;;;16.63;9.73;;;;;;;;;;10453207;28;20032;-79
2023/12/17 07:34:07;;;;;;;18.65;10.13;;;;;;;;;;10484903;28;20501;-76
2023/12/17 07:39:07;;;;;;;15.68;10.00;;;;;;;;;;10485473;28;20565;-82
2023/12/17 07:44:07;;;;;;;14.70;8.40;;;;;;;;;;10467892;28;20036;-76
2023/12/17 07:49:07;;;;;;;18.63;9.73;;;;;;;;;;10472210;28;20433;-76
2023/12/17 07:54:08;;;;;;;18.35;9.02;;;;;;;;;;10450810;28;20039;-75
2023/12/17 07:59:08;;;;;;;20.70;10.80;;;;;;;;;;10424361;28;20043;-75
2023/12/17 08:04:09;;;;;;;19.65;10.00;;;;;;;;;;10440007;28;20080;-76
2023/12/17 08:09:10;;;;;;;18.90;10.30;;;;;;;;;;10447729;28;20021;-77
2023/12/17 08:14:10;;;;;;;15.93;8.95;;;;;;;;;;10472770;28;20039;-72
2023/12/17 08:19:10;;;;;;;19.20;9.95;;;;;;;;;;10476203;28;20031;-75
2023/12/17 08:24:10;;;;;;;25.92;11.60;;;;;;;;;;10481385;28;20035;-77
2023/12/17 08:29:11;;;;;;;19.98;10.15;;;;;;;;;;10485839;28;20038;-74
2023/12/17 08:34:11;;;;;;;19.30;10.70;;;;;;;;;;10502585;28;20096;-76
2023/12/17 08:39:11;;;;;;;15.40;9.10;;;;;;;;;;10481138;28;20487;-74
2023/12/17 08:44:11;;;;;;;19.48;11.52;;;;;;;;;;10486832;28;20502;-73
2023/12/17 08:49:12;;;;;;;18.08;8.55;;;;;;;;;;10497687;28;20123;-73
2023/12/17 08:54:13;;;;;;;16.80;8.88;;;;;;;;;;10483134;28;20442;-75
2023/12/17 08:59:13;;;;;;;18.40;8.90;;;;;;;;;;10493533;28;20115;-76
2023/12/17 09:04:13;;;;;;;16.52;9.25;;;;;;;;;;10477928;28;20190;-76
2023/12/17 09:09:14;;;;;;;16.10;8.97;;;;;;;;;;10483866;28;20028;-72
2023/12/17 09:14:14;;;;;;;20.38;10.32;;;;;;;;;;10480896;28;20350;-76
2023/12/17 09:19:14;;;;;;;15.85;9.43;;;;;;;;;;10491490;28;20513;-75
2023/12/17 09:24:15;;;;;;;18.30;10.10;;;;;;;;;;10514276;28;20549;-76
2023/12/17 09:29:15;;;;;;;21.67;10.82;;;;;;;;;;10484720;28;20031;-75
2023/12/17 09:34:15;;;;;;;17.98;10.50;;;;;;;;;;10483240;28;20033;-75
2023/12/17 09:39:15;;;;;;;26.23;11.60;;;;;;;;;;10488120;28;20422;-76
2023/12/17 09:44:15;;;;;;;20.02;10.95;;;;;;;;;;10489023;28;20021;-76
2023/12/17 09:49:16;;;;;;;22.13;11.90;;;;;;;;;;10486302;28;20024;-76
2023/12/17 09:54:16;;;;;;;18.98;10.63;;;;;;;;;;10493243;28;20780;-76
2023/12/17 09:59:16;;;;;;;27.27;11.25;;;;;;;;;;10485008;28;20410;-75
2023/12/17 10:04:21;;;;;;;19.58;10.20;;;;;;;;;;10493497;28;20510;-74
2023/12/17 10:09:21;;;;;;;17.77;9.57;;;;;;;;;;10487911;28;20039;-75
2023/12/17 10:14:22;;;;;;;19.50;9.38;;;;;;;;;;10485330;28;20495;-77
2023/12/17 10:19:24;;;;;;;17.13;8.85;;;;;;;;;;10489526;28;20024;-76
2023/12/17 10:24:34;;;;;;;19.98;9.15;;;;;;;;;;10490956;28;20027;-79
2023/12/17 10:29:34;;;;;;;20.23;11.13;;;;;;;;;;10484438;28;20012;-77
2023/12/17 10:34:34;;;;;;;19.90;11.40;;;;;;;;;;10480369;28;20568;-78
2023/12/17 10:39:35;;;;;;;18.08;9.98;;;;;;;;;;10486915;28;20047;-77
2023/12/17 10:44:36;;;;;;;23.73;10.60;;;;;;;;;;10482087;28;20016;-77
2023/12/17 10:49:37;;;;;;;21.52;11.00;;;;;;;;;;10482586;28;20498;-75
2023/12/17 10:54:37;;;;;;;23.30;11.63;;;;;;;;;;10486400;28;20110;-75
2023/12/17 10:59:38;;;;;;;21.45;9.95;;;;;;;;;;10489646;28;20106;-75
2023/12/17 11:04:45;;;;;;;22.83;10.93;;;;;;;;;;10479739;28;20060;-76
2023/12/17 11:09:45;;;;;;;22.38;10.18;;;;;;;;;;10499257;28;20028;-75
2023/12/17 11:14:45;;;;;;;23.55;11.23;;;;;;;;;;10495416;28;20464;-76
2023/12/17 11:19:52;;;;;;;18.33;10.27;;;;;;;;;;10472664;28;20024;-75
2023/12/17 11:24:54;;;;;;;19.65;11.30;;;;;;;;;;10498897;28;20020;-75
2023/12/17 11:29:55;;;;;;;23.33;10.70;;;;;;;;;;10489885;28;20019;-83
2023/12/17 11:34:56;;;;;;;18.92;9.88;;;;;;;;;;10476001;28;20020;-76
2023/12/17 11:39:57;;;;;;;24.42;11.32;;;;;;;;;;10466461;28;20143;-76
2023/12/17 11:44:57;;;;;;;18.52;11.13;;;;;;;;;;10502631;28;20550;-76
2023/12/17 11:49:59;;;;;;;23.40;11.50;;;;;;;;;;10486640;28;20497;-76
2023/12/17 11:55:00;;;;;;;20.73;10.13;;;;;;;;;;10491462;28;20017;-78
2023/12/17 12:00:00;;;;;;;20.58;10.20;;;;;;;;;;10484749;28;20009;-75
2023/12/17 12:05:00;;;;;;;21.90;11.32;;;;;;;;;;10502208;28;20098;-78
2023/12/17 12:10:06;;;;;;;24.83;12.70;;;;;;;;;;10473105;28;20110;-79
2023/12/17 12:15:06;;;;;;;28.90;12.27;;;;;;;;;;10485649;28;21424;-77
2023/12/17 12:20:07;;;;;;;23.80;11.60;;;;;;;;;;10486584;28;20032;-77
2023/12/17 12:25:07;;;;;;;22.42;11.40;;;;;;;;;;10479018;28;20016;-80
2023/12/17 12:30:22;;;;;;;21.42;10.40;;;;;;;;;;10492735;28;20488;-75
2023/12/17 12:35:29;;;;;;;95.57;68.10;;;;;;;;;;10487337;28;20016;-78
2023/12/17 12:40:32;;;;;;;21.05;9.88;;;;;;;;;;10484774;28;20020;-76
2023/12/17 12:45:33;;;;;;;21.35;11.93;;;;;;;;;;10486809;28;20012;-76
2023/12/17 12:50:33;;;;;;;19.38;11.70;;;;;;;;;;10500890;28;20024;-78
2023/12/17 12:55:33;;;;;;;20.58;11.48;;;;;;;;;;10476986;28;20024;-77
2023/12/17 13:00:33;;;;;;;25.15;12.77;;;;;;;;;;10485138;28;20490;-76
2023/12/17 13:05:33;;;;;;;16.90;9.98;;;;;;;;;;10482559;28;20024;-76
2023/12/17 13:10:35;;;;;;;22.52;11.73;;;;;;;;;;10475268;28;20089;-75
2023/12/17 13:15:35;;;;;;;24.80;12.07;;;;;;;;;;10499515;28;20107;-75
2023/12/17 13:20:35;;;;;;;22.42;12.57;;;;;;;;;;10490828;28;20027;-80
2023/12/17 13:25:36;;;;;;;20.92;11.25;;;;;;;;;;10494600;28;20474;-76
2023/12/17 13:30:36;;;;;;;26.02;13.23;;;;;;;;;;10491232;28;20024;-76
2023/12/17 13:35:36;;;;;;;23.48;12.50;;;;;;;;;;10490122;28;20103;-76
2023/12/17 13:40:37;;;;;;;23.90;12.05;;;;;;;;;;10486537;28;20481;-77
2023/12/17 13:45:38;;;;;;;27.63;12.48;;;;;;;;;;10491930;28;20078;-77
2023/12/17 13:50:40;;;;;;;27.38;13.40;;;;;;;;;;10482575;28;20410;-78
2023/12/17 13:55:40;;;;;;;28.55;15.27;;;;;;;;;;10487006;28;20313;-76
2023/12/17 14:00:40;;;;;;;35.30;17.58;;;;;;;;;;10486809;28;20043;-76
2023/12/17 14:05:40;;;;;;;27.17;15.32;;;;;;;;;;10500068;28;20031;-77
2023/12/17 14:10:42;;;;;;;24.13;12.60;;;;;;;;;;10483123;28;20027;-77
2023/12/17 14:15:42;;;;;;;26.50;13.32;;;;;;;;;;10476599;28;20375;-77
2023/12/17 14:20:42;;;;;;;30.05;15.30;;;;;;;;;;10474410;28;20024;-78
2023/12/17 14:25:42;;;;;;;28.48;14.60;;;;;;;;;;10481367;28;20089;-79
2023/12/17 14:30:43;;;;;;;26.00;14.77;;;;;;;;;;10495970;28;20027;-81
2023/12/17 14:35:44;;;;;;;29.75;15.90;;;;;;;;;;10471438;28;20571;-77
2023/12/17 14:40:44;;;;;;;33.65;18.50;;;;;;;;;;10479830;28;20016;-76
2023/12/17 14:45:45;;;;;;;33.08;16.13;;;;;;;;;;10488320;28;20012;-76
2023/12/17 14:50:45;;;;;;;32.63;17.60;;;;;;;;;;10477088;28;20024;-76
2023/12/17 14:55:45;;;;;;;33.20;16.98;;;;;;;;;;10474426;28;20418;-76
2023/12/17 15:00:46;;;;;;;33.42;17.13;;;;;;;;;;10476639;28;20109;-76
2023/12/17 15:05:47;;;;;;;38.65;19.55;;;;;;;;;;10489952;28;20326;-78
2023/12/17 15:10:47;;;;;;;43.67;19.90;;;;;;;;;;10493720;28;20020;-76
2023/12/17 15:15:47;;;;;;;41.10;21.50;;;;;;;;;;10490829;28;20031;-78
2023/12/17 15:20:47;;;;;;;47.65;22.48;;;;;;;;;;10477636;28;20093;-77
2023/12/17 15:25:48;;;;;;;50.13;26.38;;;;;;;;;;10478873;28;20016;-76
2023/12/17 15:30:48;;;;;;;46.10;24.07;;;;;;;;;;10475725;28;20414;-80
2023/12/17 15:35:48;;;;;;;54.72;23.67;;;;;;;;;;10476199;28;20031;-76
2023/12/17 15:40:48;;;;;;;42.45;23.30;;;;;;;;;;10475889;28;20025;-78
2023/12/17 15:45:48;;;;;;;49.22;22.50;;;;;;;;;;10489310;28;20016;-80
2023/12/17 15:50:49;;;;;;;55.38;25.17;;;;;;;;;;10480170;28;20377;-81
2023/12/17 15:55:49;;;;;;;57.03;26.58;;;;;;;;;;10489056;28;20496;-77
2023/12/17 16:00:49;;;;;;;55.80;28.40;;;;;;;;;;10491000;28;20052;-77
2023/12/17 16:05:49;;;;;;;60.13;30.65;;;;;;;;;;10483557;28;20020;-76
2023/12/17 16:10:50;;;;;;;56.10;28.25;;;;;;;;;;10482580;28;20507;-75
2023/12/17 16:15:50;;;;;;;69.07;33.70;;;;;;;;;;10478612;28;20038;-76
2023/12/17 16:20:50;;;;;;;71.63;34.00;;;;;;;;;;10481426;28;20028;-74
2023/12/17 16:25:50;;;;;;;68.35;32.60;;;;;;;;;;10478767;28;20013;-77
2023/12/17 16:30:51;;;;;;;66.50;32.47;;;;;;;;;;10480373;28;20020;-75
2023/12/17 16:35:53;;;;;;;76.28;38.05;;;;;;;;;;10472059;28;20033;-75
2023/12/17 16:40:53;;;;;;;73.05;39.05;;;;;;;;;;10500815;28;20032;-74
2023/12/17 16:45:53;;;;;;;75.07;34.72;;;;;;;;;;10479333;28;20054;-75
2023/12/17 16:50:53;;;;;;;65.30;33.03;;;;;;;;;;10488672;28;20082;-75
2023/12/17 16:55:53;;;;;;;65.28;30.05;;;;;;;;;;10503058;28;20086;-75
2023/12/17 17:00:55;;;;;;;60.28;29.23;;;;;;;;;;10503904;28;20498;-75
2023/12/17 17:05:56;;;;;;;63.88;28.00;;;;;;;;;;10500706;28;20020;-76
2023/12/17 17:10:58;;;;;;;54.70;28.02;;;;;;;;;;10491671;28;20073;-76
2023/12/17 17:15:58;;;;;;;58.00;27.45;;;;;;;;;;10494085;28;20081;-74
2023/12/17 17:20:59;;;;;;;49.75;26.75;;;;;;;;;;10492602;28;20077;-75
2023/12/17 17:26:00;;;;;;;61.75;29.45;;;;;;;;;;10488828;28;20399;-77
2023/12/17 17:31:00;;;;;;;65.30;30.07;;;;;;;;;;10505851;28;20039;-79
2023/12/17 17:36:00;;;;;;;65.43;29.50;;;;;;;;;;10491285;28;20111;-75
2023/12/17 17:41:01;;;;;;;59.85;26.25;;;;;;;;;;10493936;28;20286;-75
2023/12/17 17:46:01;;;;;;;62.05;26.17;;;;;;;;;;10478025;28;20016;-75
2023/12/17 17:51:03;;;;;;;58.03;25.20;;;;;;;;;;10509542;28;20020;-74
2023/12/17 17:56:04;;;;;;;51.33;24.10;;;;;;;;;;10512610;28;20024;-74
2023/12/17 18:01:05;;;;;;;50.65;24.42;;;;;;;;;;10485492;28;20106;-76
2023/12/17 18:06:06;;;;;;;50.08;23.60;;;;;;;;;;10493253;28;20441;-74
2023/12/17 18:11:06;;;;;;;55.55;23.90;;;;;;;;;;10488708;28;20031;-73
2023/12/17 18:16:07;;;;;;;46.63;23.25;;;;;;;;;;10483295;28;20036;-74
2023/12/17 18:21:07;;;;;;;49.00;24.40;;;;;;;;;;10491582;28;20340;-75
2023/12/17 18:26:07;;;;;;;48.95;23.85;;;;;;;;;;10487985;28;20028;-76
2023/12/17 18:31:07;;;;;;;51.20;23.60;;;;;;;;;;10507012;28;20063;-74
2023/12/17 18:36:07;;;;;;;60.85;25.83;;;;;;;;;;10503025;28;20049;-75
2023/12/17 18:41:08;;;;;;;52.20;26.10;;;;;;;;;;10501750;28;20035;-76
2023/12/17 18:46:15;;;;;;;45.88;22.80;;;;;;;;;;10500731;28;20474;-75
2023/12/17 18:51:15;;;;;;;45.50;21.80;;;;;;;;;;10466827;28;20031;-75
2023/12/17 18:56:16;;;;;;;52.72;24.50;;;;;;;;;;10510064;28;20024;-76
2023/12/17 19:01:16;;;;;;;48.90;23.60;;;;;;;;;;10487017;28;20131;-75
2023/12/17 19:06:20;;;;;;;51.38;22.33;;;;;;;;;;10487848;28;20032;-74
2023/12/17 19:11:20;;;;;;;43.00;20.77;;;;;;;;;;10483316;28;20052;-75
2023/12/17 19:16:20;;;;;;;40.30;21.97;;;;;;;;;;10483917;28;20678;-75
2023/12/17 19:21:21;;;;;;;44.83;22.33;;;;;;;;;;10483336;28;20465;-74
2023/12/17 19:26:21;;;;;;;43.53;23.75;;;;;;;;;;10480395;28;20019;-75
2023/12/17 19:31:22;;;;;;;46.75;21.63;;;;;;;;;;10485655;28;20715;-75
2023/12/17 19:36:23;;;;;;;51.50;22.85;;;;;;;;;;10481690;28;20020;-75
2023/12/17 19:41:23;;;;;;;39.45;19.75;;;;;;;;;;10480214;28;20027;-79
2023/12/17 19:46:24;;;;;;;39.10;20.33;;;;;;;;;;10486613;28;20051;-76
2023/12/17 19:51:26;;;;;;;45.08;21.25;;;;;;;;;;10487065;28;20050;-75
2023/12/17 19:56:26;;;;;;;54.92;23.23;;;;;;;;;;10480738;28;20027;-75
2023/12/17 20:01:26;;;;;;;40.60;21.90;;;;;;;;;;10502038;28;20041;-75
2023/12/17 20:06:27;;;;;;;40.88;19.98;;;;;;;;;;10475590;28;20098;-74
2023/12/17 20:11:27;;;;;;;40.25;19.17;;;;;;;;;;10484085;28;20022;-75
2023/12/17 20:16:27;;;;;;;40.42;17.92;;;;;;;;;;10485847;28;20023;-75
2023/12/17 20:21:27;;;;;;;34.95;17.88;;;;;;;;;;10481538;28;20028;-75
2023/12/17 20:26:27;;;;;;;46.33;21.67;;;;;;;;;;10487465;28;20059;-75
2023/12/17 20:31:28;;;;;;;42.35;20.33;;;;;;;;;;10485502;28;20016;-76
2023/12/17 20:36:28;;;;;;;50.10;23.27;;;;;;;;;;10494901;28;20015;-75
2023/12/17 20:41:28;;;;;;;42.42;21.30;;;;;;;;;;10486388;28;20028;-75
2023/12/17 20:46:29;;;;;;;41.25;20.13;;;;;;;;;;10485026;28;20016;-75
2023/12/17 20:51:29;;;;;;;44.72;20.42;;;;;;;;;;10498514;28;20073;-75
2023/12/17 20:56:29;;;;;;;37.37;18.83;;;;;;;;;;10491772;28;20055;-77
2023/12/17 21:01:30;;;;;;;37.73;19.43;;;;;;;;;;10488174;28;20370;-76
2023/12/17 21:06:30;;;;;;;38.20;19.33;;;;;;;;;;10481462;28;20278;-77
2023/12/17 21:11:30;;;;;;;35.50;18.57;;;;;;;;;;10476146;28;20726;-81
2023/12/17 21:16:31;;;;;;;33.08;17.00;;;;;;;;;;10494214;28;20028;-75
2023/12/17 21:21:31;;;;;;;40.72;19.90;;;;;;;;;;10482844;28;20023;-78
2023/12/17 21:26:34;;;;;;;45.28;22.55;;;;;;;;;;10470450;28;20466;-79
2023/12/17 21:31:34;;;;;;;55.05;24.30;;;;;;;;;;10453339;28;20073;-75
2023/12/17 21:36:34;;;;;;;54.35;25.75;;;;;;;;;;10449736;28;20107;-79
2023/12/17 21:41:35;;;;;;;52.67;24.70;;;;;;;;;;10471018;28;20582;-78
2023/12/17 21:46:35;;;;;;;46.53;23.30;;;;;;;;;;10470900;28;20060;-75
2023/12/17 21:51:35;;;;;;;49.90;26.10;;;;;;;;;;10470157;28;20483;-78
2023/12/17 21:56:36;;;;;;;51.92;23.27;;;;;;;;;;10469960;28;20078;-77
2023/12/17 22:01:36;;;;;;;42.33;19.90;;;;;;;;;;10470344;28;20049;-79
2023/12/17 22:06:37;;;;;;;40.77;21.83;;;;;;;;;;10470844;28;20522;-79
2023/12/17 22:11:41;;;;;;;43.10;24.58;;;;;;;;;;10487793;28;20090;-75
2023/12/17 22:16:41;;;;;;;52.03;24.23;;;;;;;;;;10487600;28;20502;-75
2023/12/17 22:21:43;;;;;;;44.28;22.40;;;;;;;;;;10487174;28;20037;-75
2023/12/17 22:26:43;;;;;;;40.58;21.38;;;;;;;;;;10486145;28;20031;-74
2023/12/17 22:31:44;;;;;;;50.72;22.52;;;;;;;;;;10470391;28;20035;-81
2023/12/17 22:36:44;;;;;;;51.47;20.88;;;;;;;;;;10476214;28;20024;-76
2023/12/17 22:41:44;;;;;;;43.83;21.90;;;;;;;;;;10477593;28;20032;-78
2023/12/17 22:46:44;;;;;;;47.30;24.45;;;;;;;;;;10486726;28;20020;-76
2023/12/17 22:51:44;;;;;;;51.75;24.88;;;;;;;;;;10489886;28;20086;-75
2023/12/17 22:56:45;;;;;;;51.15;22.50;;;;;;;;;;10468198;28;20388;-83
2023/12/17 23:01:47;;;;;;;48.97;23.92;;;;;;;;;;10468269;28;20125;-82
2023/12/17 23:06:47;;;;;;;50.47;24.10;;;;;;;;;;10468344;28;20051;-78
2023/12/17 23:11:48;;;;;;;45.80;23.70;;;;;;;;;;10468212;28;20093;-76
2023/12/17 23:16:48;;;;;;;48.85;20.67;;;;;;;;;;10472564;28;20037;-75
2023/12/17 23:21:48;;;;;;;53.77;23.60;;;;;;;;;;10467001;28;20199;-75
2023/12/17 23:26:49;;;;;;;53.97;22.88;;;;;;;;;;10483908;28;20119;-76
2023/12/17 23:31:49;;;;;;;45.40;22.73;;;;;;;;;;10467212;28;20024;-76
2023/12/17 23:36:50;;;;;;;50.42;23.85;;;;;;;;;;10466396;28;20324;-75
2023/12/17 23:41:50;;;;;;;51.13;24.93;;;;;;;;;;10466647;28;20020;-80
2023/12/17 23:46:50;;;;;;;43.22;21.05;;;;;;;;;;10466755;28;20082;-74
2023/12/17 23:51:50;;;;;;;41.80;20.98;;;;;;;;;;10466113;28;20029;-75
2023/12/17 23:56:50;;;;;;;36.25;19.17;;;;;;;;;;10465224;28;20028;-76
